Time,TemperatureF,DewpointF,PressureIn,WindDirection,WindDirectionDegrees,WindSpeedMPH,WindSpeedGustMPH,Humidity,HourlyPrecipIn,Conditions,Clouds,dailyrainin,SoftwareType,DateUTC
2013-06-27 00:05:00,63.0,57.8,29.75,NE,45,0.0,-999.0,83,-99.99,,,0.00,Acu-Link.com,2013-06-27 07:05:00,
2013-06-27 00:20:00,63.3,58.0,29.75,East,90,0.0,-999.0,83,-99.99,,,0.00,Acu-Link.com,2013-06-27 07:20:00,
2013-06-27 00:35:00,63.3,57.7,29.75,East,90,3.2,-999.0,82,-99.99,,,0.00,Acu-Link.com,2013-06-27 07:35:00,
2013-06-27 00:50:00,63.3,58.0,29.75,NE,45,0.0,-999.0,83,-99.99,,,0.00,Acu-Link.com,2013-06-27 07:50:00,
2013-06-27 01:05:00,63.5,58.2,29.75,East,90,0.0,-999.0,83,-99.99,,,0.00,Acu-Link.com,2013-06-27 08:05:00,
2013-06-27 01:21:00,63.3,58.0,29.75,ESE,112,0.0,-999.0,83,-99.99,,,0.00,Acu-Link.com,2013-06-27 08:21:00,
2013-06-27 01:36:00,63.3,58.0,29.74,ESE,112,0.0,-999.0,83,-99.99,,,0.00,Acu-Link.com,2013-06-27 08:36:00,
2013-06-27 01:51:00,63.3,58.4,29.74,ESE,112,0.0,-999.0,84,-99.99,,,0.00,Acu-Link.com,2013-06-27 08:51:00,
2013-06-27 02:06:00,63.5,58.9,29.75,ESE,112,0.0,-999.0,85,-99.99,,,0.00,Acu-Link.com,2013-06-27 09:06:00,
2013-06-27 02:21:00,63.3,59.0,29.74,ESE,112,0.0,-999.0,86,-99.99,,,0.00,Acu-Link.com,2013-06-27 09:21:00,
2013-06-27 02:36:00,63.3,59.0,29.75,ESE,112,0.0,-999.0,86,-99.99,,,0.00,Acu-Link.com,2013-06-27 09:36:00,
2013-06-27 02:51:00,63.0,59.4,29.74,ESE,112,0.0,-999.0,88,-99.99,,,0.00,Acu-Link.com,2013-06-27 09:51:00,
2013-06-27 03:06:00,62.8,59.8,29.75,NE,45,0.0,-999.0,90,-99.99,,,0.00,Acu-Link.com,2013-06-27 10:06:00,
2013-06-27 03:21:00,62.6,59.9,29.73,East,90,0.0,-999.0,91,-99.99,,,0.00,Acu-Link.com,2013-06-27 10:21:00,
2013-06-27 03:37:00,62.2,59.8,29.74,ESE,112,0.0,-999.0,92,-99.99,,,0.00,Acu-Link.com,2013-06-27 10:37:00,
2013-06-27 03:52:00,62.2,60.1,29.74,ENE,67,0.0,-999.0,93,-99.99,,,0.00,Acu-Link.com,2013-06-27 10:52:00,
2013-06-27 04:07:00,62.1,60.6,29.74,ESE,112,0.0,-999.0,95,-99.99,,,0.00,Acu-Link.com,2013-06-27 11:07:00,
2013-06-27 04:22:00,61.9,61.0,29.73,ENE,67,0.0,-999.0,97,-99.99,,,0.00,Acu-Link.com,2013-06-27 11:22:00,
2013-06-27 04:37:00,61.9,61.6,29.73,East,90,0.0,-999.0,99,-99.99,,,0.01,Acu-Link.com,2013-06-27 11:37:00,
2013-06-27 04:52:00,61.7,61.4,29.73,East,90,1.1,-999.0,99,-99.99,,,0.01,Acu-Link.com,2013-06-27 11:52:00,
2013-06-27 05:08:00,61.9,61.6,29.74,ENE,67,2.7,-999.0,99,-99.99,,,0.02,Acu-Link.com,2013-06-27 12:08:00,
2013-06-27 05:23:00,61.5,61.2,29.74,ENE,67,2.7,-999.0,99,-99.99,,,0.03,Acu-Link.com,2013-06-27 12:23:00,
2013-06-27 05:38:00,61.5,61.2,29.74,SSE,157,0.0,-999.0,99,-99.99,,,0.04,Acu-Link.com,2013-06-27 12:38:00,
2013-06-27 05:53:00,61.5,61.2,29.75,SE,135,0.0,-999.0,99,-99.99,,,0.04,Acu-Link.com,2013-06-27 12:53:00,
2013-06-27 06:08:00,61.9,61.6,29.75,South,180,1.1,-999.0,99,-99.99,,,0.05,Acu-Link.com,2013-06-27 13:08:00,
2013-06-27 06:23:00,61.7,61.4,29.75,NE,45,0.0,-999.0,99,-99.99,,,0.06,Acu-Link.com,2013-06-27 13:23:00,
2013-06-27 06:39:00,62.1,61.8,29.75,SW,225,0.0,-999.0,99,-99.99,,,0.06,Acu-Link.com,2013-06-27 13:39:00,
2013-06-27 06:54:00,62.6,62.3,29.75,ESE,112,0.0,-999.0,99,-99.99,,,0.06,Acu-Link.com,2013-06-27 13:54:00,
2013-06-27 07:09:00,62.8,62.5,29.75,SE,135,0.0,-999.0,99,-99.99,,,0.07,Acu-Link.com,2013-06-27 14:09:00,
2013-06-27 07:24:00,63.0,62.7,29.77,South,180,0.0,-999.0,99,-99.99,,,0.07,Acu-Link.com,2013-06-27 14:24:00,
2013-06-27 07:39:00,63.1,62.8,29.76,ESE,112,1.1,-999.0,99,-99.99,,,0.08,Acu-Link.com,2013-06-27 14:39:00,
2013-06-27 07:54:00,63.3,62.1,29.77,East,90,1.7,-999.0,96,-99.99,,,0.08,Acu-Link.com,2013-06-27 14:54:00,
2013-06-27 08:09:00,63.7,62.5,29.78,ESE,112,2.7,-999.0,96,-99.99,,,0.08,Acu-Link.com,2013-06-27 15:09:00,
2013-06-27 08:24:00,63.3,62.1,29.77,ENE,67,1.7,-999.0,96,-99.99,,,0.08,Acu-Link.com,2013-06-27 15:24:00,
2013-06-27 08:39:00,63.3,62.7,29.78,WNW,292,2.7,-999.0,98,-99.99,,,0.08,Acu-Link.com,2013-06-27 15:39:00,
2013-06-27 08:54:00,63.1,62.8,29.78,East,90,4.7,-999.0,99,-99.99,,,0.09,Acu-Link.com,2013-06-27 15:54:00,
2013-06-27 09:10:00,63.0,62.7,29.78,ESE,112,2.2,-999.0,99,-99.99,,,0.09,Acu-Link.com,2013-06-27 16:10:00,
2013-06-27 09:25:00,63.9,63.3,29.79,ENE,67,0.0,-999.0,98,-99.99,,,0.09,Acu-Link.com,2013-06-27 16:25:00,
2013-06-27 09:40:00,63.9,62.7,29.79,ESE,112,4.2,-999.0,96,-99.99,,,0.09,Acu-Link.com,2013-06-27 16:40:00,
2013-06-27 09:55:00,65.3,63.8,29.81,SSE,157,3.2,-999.0,95,-99.99,,,0.09,Acu-Link.com,2013-06-27 16:55:00,
2013-06-27 10:10:00,66.6,64.5,29.79,ENE,67,0.0,-999.0,93,-99.99,,,0.09,Acu-Link.com,2013-06-27 17:10:00,
2013-06-27 10:25:00,66.7,64.9,29.80,ENE,67,3.2,-999.0,94,-99.99,,,0.09,Acu-Link.com,2013-06-27 17:25:00,
2013-06-27 10:40:00,66.0,64.2,29.81,ENE,67,4.7,-999.0,94,-99.99,,,0.10,Acu-Link.com,2013-06-27 17:40:00,
2013-06-27 10:55:00,65.8,64.3,29.81,East,90,4.2,-999.0,95,-99.99,,,0.10,Acu-Link.com,2013-06-27 17:55:00,
2013-06-27 11:10:00,66.4,64.6,29.82,East,90,2.7,-999.0,94,-99.99,,,0.10,Acu-Link.com,2013-06-27 18:10:00,
2013-06-27 11:26:00,67.5,64.5,29.81,ESE,112,0.0,-999.0,90,-99.99,,,0.11,Acu-Link.com,2013-06-27 18:26:00,
2013-06-27 11:41:00,67.3,63.9,29.82,NE,45,2.7,-999.0,89,-99.99,,,0.11,Acu-Link.com,2013-06-27 18:41:00,
2013-06-27 11:56:00,67.5,63.8,29.82,SE,135,0.0,-999.0,88,-99.99,,,0.11,Acu-Link.com,2013-06-27 18:56:00,
2013-06-27 12:11:00,68.5,64.1,29.82,East,90,1.7,-999.0,86,-99.99,,,0.11,Acu-Link.com,2013-06-27 19:11:00,
2013-06-27 12:26:00,68.9,64.2,29.82,NNW,337,0.0,-999.0,85,-99.99,,,0.11,Acu-Link.com,2013-06-27 19:26:00,
2013-06-27 12:41:00,67.5,62.8,29.82,West,270,0.0,-999.0,85,-99.99,,,0.11,Acu-Link.com,2013-06-27 19:41:00,
2013-06-27 12:56:00,67.5,62.5,29.82,SSW,202,0.0,-999.0,84,-99.99,,,0.11,Acu-Link.com,2013-06-27 19:56:00,
2013-06-27 13:11:00,69.3,63.6,29.83,SSW,202,2.7,-999.0,82,-99.99,,,0.11,Acu-Link.com,2013-06-27 20:11:00,
2013-06-27 13:26:00,67.5,63.8,29.82,SSW,202,3.7,-999.0,88,-99.99,,,0.11,Acu-Link.com,2013-06-27 20:26:00,
2013-06-27 13:42:00,66.9,63.2,29.82,West,270,1.1,-999.0,88,-99.99,,,0.11,Acu-Link.com,2013-06-27 20:42:00,
2013-06-27 13:57:00,66.7,63.0,29.84,West,270,0.0,-999.0,88,-99.99,,,0.11,Acu-Link.com,2013-06-27 20:57:00,
2013-06-27 14:12:00,67.6,63.3,29.83,SW,225,2.2,-999.0,86,-99.99,,,0.11,Acu-Link.com,2013-06-27 21:12:00,
2013-06-27 14:27:00,68.4,64.0,29.84,SW,225,2.7,-999.0,86,-99.99,,,0.11,Acu-Link.com,2013-06-27 21:27:00,
2013-06-27 14:42:00,71.2,64.0,29.84,SW,225,1.7,-999.0,78,-99.99,,,0.11,Acu-Link.com,2013-06-27 21:42:00,
2013-06-27 15:12:00,70.5,63.7,29.84,SSW,202,2.2,-999.0,79,-99.99,,,0.11,Acu-Link.com,2013-06-27 22:12:00,
2013-06-27 15:27:00,70.5,63.7,29.84,South,180,2.7,-999.0,79,-99.99,,,0.11,Acu-Link.com,2013-06-27 22:27:00,
2013-06-27 15:58:00,70.5,64.0,29.85,ENE,67,1.1,-999.0,80,-99.99,,,0.11,Acu-Link.com,2013-06-27 22:58:00,
2013-06-27 16:28:00,70.5,63.7,29.85,SSW,202,3.2,-999.0,79,-99.99,,,0.11,Acu-Link.com,2013-06-27 23:28:00,
2013-06-27 16:58:00,71.8,64.2,29.85,SW,225,0.0,-999.0,77,-99.99,,,0.11,Acu-Link.com,2013-06-27 23:58:00,
2013-06-27 17:13:00,71.4,64.2,29.86,SSW,202,3.2,-999.0,78,-99.99,,,0.11,Acu-Link.com,2013-06-28 00:13:00,
2013-06-27 17:44:00,68.7,64.0,29.86,SSW,202,3.7,-999.0,85,-99.99,,,0.11,Acu-Link.com,2013-06-28 00:44:00,
2013-06-27 17:59:00,68.4,64.4,29.86,SW,225,4.2,-999.0,87,-99.99,,,0.11,Acu-Link.com,2013-06-28 00:59:00,
2013-06-27 18:29:00,68.9,64.5,29.87,SSE,157,0.0,-999.0,86,-99.99,,,0.11,Acu-Link.com,2013-06-28 01:29:00,
2013-06-27 18:44:00,68.9,64.2,29.87,SE,135,2.7,-999.0,85,-99.99,,,0.11,Acu-Link.com,2013-06-28 01:44:00,
2013-06-27 19:14:00,67.5,65.1,29.88,ESE,112,1.1,-999.0,92,-99.99,,,0.11,Acu-Link.com,2013-06-28 02:14:00,
2013-06-27 19:29:00,68.4,65.7,29.87,ESE,112,1.7,-999.0,91,-99.99,,,0.11,Acu-Link.com,2013-06-28 02:29:00,
2013-06-27 19:44:00,69.1,65.4,29.87,South,180,0.0,-999.0,88,-99.99,,,0.11,Acu-Link.com,2013-06-28 02:44:00,
2013-06-27 20:15:00,68.4,64.4,29.87,South,180,0.0,-999.0,87,-99.99,,,0.11,Acu-Link.com,2013-06-28 03:15:00,
2013-06-27 20:30:00,68.2,64.8,29.87,South,180,0.0,-999.0,89,-99.99,,,0.11,Acu-Link.com,2013-06-28 03:30:00,
2013-06-27 20:45:00,68.2,64.8,29.86,ESE,112,0.0,-999.0,89,-99.99,,,0.11,Acu-Link.com,2013-06-28 03:45:00,
2013-06-27 21:00:00,68.2,64.5,29.87,ESE,112,0.0,-999.0,88,-99.99,,,0.11,Acu-Link.com,2013-06-28 04:00:00,
2013-06-27 21:15:00,68.0,64.0,29.87,SSW,202,0.0,-999.0,87,-99.99,,,0.11,Acu-Link.com,2013-06-28 04:15:00,
2013-06-27 21:31:00,67.6,64.6,29.87,SE,135,0.0,-999.0,90,-99.99,,,0.11,Acu-Link.com,2013-06-28 04:31:00,
2013-06-27 21:46:00,67.1,64.1,29.87,ESE,112,0.0,-999.0,90,-99.99,,,0.11,Acu-Link.com,2013-06-28 04:46:00,
2013-06-27 22:01:00,66.7,63.4,29.88,East,90,0.0,-999.0,89,-99.99,,,0.11,Acu-Link.com,2013-06-28 05:01:00,
2013-06-27 22:16:00,66.7,63.7,29.88,NE,45,0.0,-999.0,90,-99.99,,,0.11,Acu-Link.com,2013-06-28 05:16:00,
2013-06-27 22:31:00,66.7,64.0,29.88,NE,45,0.0,-999.0,91,-99.99,,,0.11,Acu-Link.com,2013-06-28 05:31:00,
2013-06-27 22:46:00,66.7,64.0,29.87,SW,225,0.0,-999.0,91,-99.99,,,0.11,Acu-Link.com,2013-06-28 05:46:00,
2013-06-27 23:01:00,66.7,64.0,29.87,WSW,247,0.0,-999.0,91,-99.99,,,0.11,Acu-Link.com,2013-06-28 06:01:00,
2013-06-27 23:17:00,66.0,63.6,29.86,ENE,67,0.0,-999.0,92,-99.99,,,0.11,Acu-Link.com,2013-06-28 06:17:00,
2013-06-27 23:32:00,65.7,63.3,29.88,NE,45,0.0,-999.0,92,-99.99,,,0.11,Acu-Link.com,2013-06-28 06:32:00,
2013-06-27 23:47:00,65.7,63.6,29.88,South,180,0.0,-999.0,93,-99.99,,,0.11,Acu-Link.com,2013-06-28 06:47:00,